• Join FlightAware (Why Join?)
  • Login
  • US Flag 
11:08PM EDT


 

Airport Tracker/Info


-or-


 

Live Flight TrackerFlight Track Log ✈ UAL4234 ✈ 05-Apr-2013 ✈ KIAH - KLFT

Flight Track Log - Related Links

Times and Time Zones

All times are in EDT time to prevent confusion due to time zone crossing. See the UAL4234 flight status page for this flight to view local times or setup timezone preferences in your user account.

Time Position Orientation Groundspeed Altitude Reporting Facility
EDT Latitude Longitude Course Direction KTS MPH feet Rate Location/Type
11:21AM 29.9639 -95.3458 90° East 156 180 700  Level Houston Center
11:22AM 29.9481 -95.2633 102° East 226 260 3,900 1,680 Climbing Houston Center
11:23AM 29.9464 -95.2261 93° East 223 257 4,000 60 Climbing Houston Center
11:23AM 29.9433 -95.1892 95° East 252 290 4,000 360 Level Houston Center
11:24AM 29.9458 -95.1461 86° East 243 280 4,400 1,560 Climbing Houston Center
11:24AM 29.9497 -95.1014 84° East 261 300 5,800 2,640 Climbing Houston Center
11:25AM 29.9834 -94.8065 90° East  Level FlightAware Approximate
11:25AM 29.9525 -95.0622 85° East 259 298 7,200  Level Houston Center
11:25AM 29.9550 -95.0236 86° East 270 311 8,600 2,760 Climbing Houston Center
11:26AM 29.9834 -94.7011 90° East  Level FlightAware Approximate
11:26AM 29.9583 -94.9728 86° East 276 318 10,100  Level Houston Center
11:26AM 29.9617 -94.9142 86° East 312 359 10,800 1,200 Climbing Houston Center
11:27AM 29.9686 -94.8461 83° East 334 384 11,400 1,020 Climbing Houston Center
11:27AM 29.9683 -94.8072 90° East 376 433 11,800 1,620 Climbing Houston Center
11:28AM 29.9764 -94.7256 83° East 372 428 13,100 1,740 Climbing Houston Center
11:29AM 29.9853 -94.6042 85° East 379 436 14,900 1,620 Climbing Houston Center
11:30AM 29.9928 -94.4778 86° East 387 445 16,500 1,320 Climbing Houston Center
11:31AM 30.0053 -94.3517 83° East 396 456 17,700 1,200 Climbing Houston Center
11:32AM 30.0172 -94.2247 84° East 399 459 19,000 600 Climbing Houston Center
11:33AM 30.0314 -94.0681 84° East 412 474 19,000  Level Houston Center
11:34AM 30.0428 -93.9372 84° East 412 474 19,000  Level Houston Center
11:35AM 30.0547 -93.8069 84° East 412 474 19,000  Level Houston Center
11:36AM 30.0661 -93.6756 84° East 415 478 19,000  Level Houston Center
11:37AM 30.0783 -93.5450 84° East 413 475 19,000  Level Houston Center
11:38AM 30.0906 -93.3908 85° East 409 471 19,000  Level Houston Center
11:39AM 30.1022 -93.2631 84° East 405 466 19,000  Level Houston Center
11:40AM 30.1133 -93.1314 84° East 413 475 19,000  Level Houston Center
11:41AM 30.1242 -92.9986 85° East 418 481 19,000 -780 Level Houston Center
11:42AM 30.1389 -92.8442 84° East 408 470 17,500 -2,220 Descending Houston Center
11:43AM 30.1483 -92.7247 85° East 385 443 14,500 -2,880 Descending Houston Center
11:44AM 30.1578 -92.6100 85° East 367 422 11,600 -2,160 Descending Houston Center
11:45AM 30.1639 -92.5139 86° East 307 353 10,100 -1,560 Descending Houston Center
11:47AM 30.1358 -92.4311 111° Southeast 281 323 8,400 -1,440 Descending Houston Center
11:48AM 30.1086 -92.3522 112° Southeast 267 307 7,200 -1,260 Descending Houston Center
11:49AM 30.0761 -92.2589 112° Southeast 263 303 5,800 -1,260 Descending Houston Center
11:50AM 30.0525 -92.1922 112° Southeast 235 270 4,700 -1,140 Descending Houston Center
11:51AM 30.0511 -92.1333 92° East 211 243 3,500 -900 Descending Houston Center
11:52AM 30.0839 -92.0947 46° Northeast 181 208 2,900 -600 Descending Houston Center